Time;durP1;ratioP1;P1;durP2;ratioP2;P2;SDS_P1;SDS_P2;PMS_P1;PMS_P2;Temp;Humidity;BMP_temperature;BMP_pressure;BME280_temperature;BME280_humidity;BME280_pressure;Samples;Min_cycle;Max_cycle;Signal;HPM_P1;HPM_P2
2022/04/30 00:02:19;;;;;;;5.72;2.53;;;6.40;99.90;;;;;;4973748;28;20051;-86
2022/04/30 00:04:46;;;;;;;6.05;2.22;;;7.20;99.90;;;;;;4970289;28;20098;-85
2022/04/30 00:07:14;;;;;;;4.47;2.95;;;6.40;99.90;;;;;;4962090;28;20125;-86
2022/04/30 00:09:41;;;;;;;3.47;1.90;;;6.70;99.90;;;;;;4973469;28;20074;-87
2022/04/30 00:12:09;;;;;;;4.65;2.20;;;7.30;99.90;;;;;;4990781;28;20410;-87
2022/04/30 00:14:36;;;;;;;3.45;2.00;;;6.60;99.90;;;;;;4974106;28;20050;-87
2022/04/30 00:17:02;;;;;;;2.70;1.80;;;6.60;99.90;;;;;;4979159;28;20039;-85
2022/04/30 00:19:29;;;;;;;3.17;1.90;;;6.50;99.90;;;;;;4986130;28;20043;-88
2022/04/30 00:21:56;;;;;;;4.00;1.42;;;6.40;99.90;;;;;;4967949;28;20050;-86
2022/04/30 00:24:23;;;;;;;4.55;1.75;;;7.40;99.90;;;;;;4974114;28;20093;-85
2022/04/30 00:26:49;;;;;;;2.75;1.80;;;6.40;99.90;;;;;;4984528;28;20125;-86
2022/04/30 00:29:14;;;;;;;3.08;1.90;;;6.50;99.90;;;;;;4970114;28;20133;-88
2022/04/30 00:31:41;;;;;;;3.72;2.25;;;6.30;99.90;;;;;;4994165;28;20079;-86
2022/04/30 00:34:07;;;;;;;4.38;2.35;;;6.30;99.90;;;;;;4987553;28;20054;-87
2022/04/30 00:36:32;;;;;;;3.83;1.65;;;7.00;99.90;;;;;;4977006;28;20376;-86
2022/04/30 00:38:58;;;;;;;3.13;1.80;;;6.80;99.90;;;;;;4973405;28;20108;-86
2022/04/30 00:41:24;;;;;;;3.42;1.77;;;6.60;99.90;;;;;;4993489;28;20054;-85
2022/04/30 00:43:53;;;;;;;4.78;1.73;;;6.40;99.90;;;;;;4994704;28;20038;-85
2022/04/30 00:46:21;;;;;;;2.90;1.83;;;6.00;99.90;;;;;;4961493;28;20042;-87
2022/04/30 00:48:47;;;;;;;6.13;1.63;;;6.40;99.90;;;;;;4963962;28;20046;-86
2022/04/30 00:51:15;;;;;;;4.38;1.70;;;6.90;99.90;;;;;;4972098;28;20038;-85
2022/04/30 00:53:45;;;;;;;3.53;1.50;;;5.80;99.90;;;;;;4999654;28;20051;-85
2022/04/30 00:56:13;;;;;;;2.13;1.40;;;5.70;99.90;;;;;;4988167;28;20043;-85
2022/04/30 00:58:41;;;;;;;3.20;1.88;;;6.30;99.90;;;;;;4977464;28;20372;-85
2022/04/30 01:01:07;;;;;;;8.52;1.85;;;6.90;99.90;;;;;;4975798;28;20046;-86
2022/04/30 01:03:33;;;;;;;4.55;2.33;;;6.00;99.90;;;;;;4993260;28;20370;-88
2022/04/30 01:06:00;;;;;;;4.40;1.77;;;6.50;99.90;;;;;;4984679;28;20042;-86
2022/04/30 01:08:27;;;;;;;6.57;1.77;;;6.00;99.90;;;;;;4971445;28;20506;-85
2022/04/30 01:10:59;;;;;;;2.22;1.20;;;6.00;99.90;;;;;;4976310;28;20046;-86
2022/04/30 01:13:25;;;;;;;4.00;2.03;;;6.00;99.90;;;;;;4975729;28;20081;-85
2022/04/30 01:15:51;;;;;;;3.40;1.35;;;6.50;99.90;;;;;;4968394;28;20054;-86
2022/04/30 01:18:17;;;;;;;2.88;1.40;;;6.00;99.90;;;;;;4986882;28;20085;-86
2022/04/30 01:20:51;;;;;;;3.53;1.83;;;6.00;99.90;;;;;;4978519;28;20524;-86
2022/04/30 01:23:18;;;;;;;3.20;1.33;;;6.80;99.90;;;;;;4993353;28;20049;-86
2022/04/30 01:25:46;;;;;;;2.10;1.17;;;6.90;99.90;;;;;;4993864;28;20034;-86
2022/04/30 01:28:12;;;;;;;2.67;1.60;;;6.30;99.90;;;;;;4967387;28;20061;-85
2022/04/30 01:30:38;;;;;;;3.05;1.50;;;6.50;99.90;;;;;;4987511;28;20038;-85
2022/04/30 01:38:33;;;;;;;1.73;1.20;;;6.80;99.90;;;;;;4985734;28;20042;-85
2022/04/30 01:40:59;;;;;;;4.47;1.00;;;6.90;99.90;;;;;;4976196;28;20193;-87
2022/04/30 01:43:27;;;;;;;2.05;1.27;;;6.40;99.90;;;;;;4991142;28;20129;-86
2022/04/30 01:45:53;;;;;;;2.95;1.17;;;5.40;99.90;;;;;;4964745;28;20483;-86
2022/04/30 01:48:20;;;;;;;2.20;1.50;;;6.00;99.90;;;;;;4978707;28;20041;-86
2022/04/30 01:50:46;;;;;;;3.03;1.80;;;6.30;99.90;;;;;;4972203;28;20057;-85
2022/04/30 01:53:12;;;;;;;3.15;1.52;;;5.90;99.90;;;;;;4972308;28;20042;-86
2022/04/30 01:55:38;;;;;;;4.57;1.70;;;6.40;99.90;;;;;;4971587;28;20050;-87
2022/04/30 01:58:04;;;;;;;2.17;1.30;;;6.00;99.90;;;;;;4962979;28;20579;-85
2022/04/30 02:00:31;;;;;;;2.38;1.40;;;6.00;99.90;;;;;;4992492;28;20085;-86
2022/04/30 02:03:06;;;;;;;3.38;1.65;;;6.70;99.90;;;;;;4964580;28;20081;-85
2022/04/30 02:05:32;;;;;;;7.75;2.13;;;6.00;99.90;;;;;;4990727;28;20129;-86
2022/04/30 02:08:07;;;;;;;3.10;1.45;;;6.70;99.90;;;;;;4969793;28;20488;-86
2022/04/30 02:10:36;;;;;;;4.90;1.67;;;6.00;99.90;;;;;;4993954;28;20096;-87
2022/04/30 02:13:05;;;;;;;3.53;1.33;;;6.90;99.90;;;;;;4972126;28;20054;-85
2022/04/30 02:15:40;;;;;;;2.03;1.30;;;6.00;99.90;;;;;;4964236;28;20051;-85
2022/04/30 02:18:10;;;;;;;2.88;1.85;;;6.00;99.90;;;;;;4967890;28;20030;-86
2022/04/30 02:20:38;;;;;;;3.50;1.63;;;6.00;99.90;;;;;;4975514;28;20046;-86
2022/04/30 02:23:08;;;;;;;2.38;1.25;;;4.50;99.90;;;;;;4984367;28;20050;-86
2022/04/30 02:25:34;;;;;;;5.20;2.13;;;6.90;99.90;;;;;;4975871;28;20041;-91
2022/04/30 02:28:04;;;;;;;3.78;2.05;;;6.10;99.90;;;;;;4979768;28;20057;-91
2022/04/30 02:30:38;;;;;;;4.07;1.70;;;6.10;99.90;;;;;;4990211;28;20038;-90
2022/04/30 02:33:12;;;;;;;1.58;1.27;;;6.10;99.90;;;;;;4969602;28;20051;-90
2022/04/30 02:35:45;;;;;;;2.72;1.70;;;6.10;99.90;;;;;;4968575;28;20132;-89
2022/04/30 02:38:12;;;;;;;2.58;1.33;;;6.80;99.90;;;;;;4960295;28;20047;-85
2022/04/30 02:40:41;;;;;;;2.80;1.60;;;6.20;99.90;;;;;;4974718;28;20042;-89
2022/04/30 02:43:10;;;;;;;2.13;1.33;;;6.80;99.90;;;;;;4975462;28;20042;-86
2022/04/30 02:45:37;;;;;;;4.82;2.08;;;6.10;99.90;;;;;;4973817;28;20046;-88
2022/04/30 02:48:06;;;;;;;2.67;1.38;;;6.70;99.90;;;;;;4986556;28;20039;-87
2022/04/30 02:50:33;;;;;;;1.52;1.20;;;6.10;99.90;;;;;;4971576;28;20390;-87
2022/04/30 02:52:59;;;;;;;1.88;1.10;;;5.60;99.90;;;;;;4980387;28;20052;-86
2022/04/30 02:55:26;;;;;;;3.22;1.15;;;6.60;99.90;;;;;;4964517;28;20043;-86
2022/04/30 03:00:42;;;;;;;2.75;1.10;;;5.70;99.90;;;;;;4991111;28;20483;-87
2022/04/30 03:03:09;;;;;;;5.97;1.10;;;6.30;99.90;;;;;;4953828;28;20042;-88
2022/04/30 03:05:36;;;;;;;1.75;0.95;;;6.00;99.90;;;;;;4971737;28;20386;-87
2022/04/30 03:08:13;;;;;;;1.60;1.10;;;6.40;99.90;;;;;;4989418;28;20062;-88
2022/04/30 03:10:43;;;;;;;3.20;1.33;;;6.00;99.90;;;;;;4989026;28;20050;-86
2022/04/30 03:13:09;;;;;;;1.17;0.93;;;5.90;99.90;;;;;;4963031;28;20121;-87
2022/04/30 03:15:35;;;;;;;2.78;1.02;;;5.90;99.90;;;;;;5002725;28;20042;-86
2022/04/30 03:23:37;;;;;;;3.67;1.60;;;6.70;99.90;;;;;;4976669;28;20141;-87
2022/04/30 03:26:04;;;;;;;1.70;1.27;;;5.40;99.90;;;;;;4967031;28;20043;-87
2022/04/30 03:28:30;;;;;;;3.15;1.45;;;5.70;99.90;;;;;;4971402;28;20138;-89
2022/04/30 03:30:55;;;;;;;2.13;1.20;;;5.80;99.90;;;;;;4971691;28;20125;-89
2022/04/30 03:33:21;;;;;;;1.30;1.08;;;6.50;99.90;;;;;;4948193;28;20042;-90
2022/04/30 03:35:47;;;;;;;1.98;1.15;;;5.00;99.90;;;;;;4987615;28;20046;-89
2022/04/30 03:38:13;;;;;;;2.00;1.13;;;5.70;99.90;;;;;;4990917;28;20044;-88
2022/04/30 03:40:41;;;;;;;2.22;1.30;;;5.90;99.90;;;;;;4969255;28;20057;-88
2022/04/30 03:43:08;;;;;;;1.90;1.10;;;6.40;99.90;;;;;;4969477;28;20146;-90
2022/04/30 03:45:34;;;;;;;1.63;1.05;;;6.00;99.90;;;;;;4966909;28;20038;-89
2022/04/30 03:48:01;;;;;;;3.40;1.27;;;6.40;99.90;;;;;;4992032;28;20054;-88
2022/04/30 03:50:26;;;;;;;1.80;1.20;;;6.10;99.90;;;;;;4973375;28;20062;-90
2022/04/30 03:52:52;;;;;;;3.60;1.20;;;5.60;99.90;;;;;;4986059;28;20034;-89
2022/04/30 03:55:18;;;;;;;2.13;1.00;;;4.70;99.90;;;;;;4961875;28;20043;-90
2022/04/30 03:57:44;;;;;;;2.70;1.48;;;5.70;99.90;;;;;;4974871;28;20041;-88
2022/04/30 04:00:11;;;;;;;3.67;1.20;;;6.30;99.90;;;;;;4991125;28;20459;-86
2022/04/30 04:02:41;;;;;;;4.40;1.52;;;5.50;99.90;;;;;;4957755;28;20113;-90
2022/04/30 04:05:12;;;;;;;1.70;1.20;;;4.20;99.90;;;;;;4950721;28;20047;-89
2022/04/30 04:07:42;;;;;;;2.97;1.33;;;6.20;99.90;;;;;;4977765;28;20050;-88
2022/04/30 04:10:12;;;;;;;3.80;1.17;;;5.50;99.90;;;;;;4969875;28;20046;-88
2022/04/30 04:12:39;;;;;;;4.03;1.30;;;5.50;99.90;;;;;;4986584;28;20469;-88
2022/04/30 04:17:50;;;;;;;2.35;1.27;;;5.60;99.90;;;;;;4994942;28;20165;-86
2022/04/30 04:20:18;;;;;;;2.40;1.20;;;6.40;99.90;;;;;;4978108;28;20137;-87
2022/04/30 04:22:44;;;;;;;2.45;1.27;;;5.60;99.90;;;;;;4970690;28;20046;-88
2022/04/30 04:27:55;;;;;;;1.70;1.20;;;5.60;99.90;;;;;;4963378;28;20085;-87
2022/04/30 04:30:22;;;;;;;2.38;1.30;;;6.50;99.90;;;;;;4995215;28;20049;-87
2022/04/30 04:32:48;;;;;;;2.08;1.30;;;6.40;99.90;;;;;;4969169;28;20057;-89
2022/04/30 04:35:14;;;;;;;3.97;1.00;;;5.60;99.90;;;;;;4987560;28;20050;-86
2022/04/30 04:37:41;;;;;;;1.58;1.10;;;5.70;99.90;;;;;;4975997;28;20045;-86
2022/04/30 04:40:09;;;;;;;1.58;1.23;;;5.30;99.90;;;;;;4961206;28;20046;-86
2022/04/30 04:42:40;;;;;;;1.85;1.20;;;5.60;99.90;;;;;;4987059;28;20050;-87
2022/04/30 04:45:07;;;;;;;1.80;1.10;;;5.70;99.90;;;;;;4987862;28;20047;-86
2022/04/30 04:47:35;;;;;;;1.65;1.23;;;5.70;99.90;;;;;;4976864;28;20046;-87
2022/04/30 04:50:04;;;;;;;3.97;1.27;;;5.70;99.90;;;;;;4955766;28;20054;-85
2022/04/30 04:52:30;;;;;;;2.58;1.20;;;5.80;99.90;;;;;;4961748;28;20125;-86
2022/04/30 04:54:57;;;;;;;1.77;1.10;;;5.70;99.90;;;;;;4955901;28;20483;-86
2022/04/30 04:57:25;;;;;;;2.25;1.15;;;5.80;99.90;;;;;;4976534;28;20081;-86
2022/04/30 04:59:54;;;;;;;2.35;1.17;;;5.80;99.90;;;;;;4993851;28;20052;-86
2022/04/30 05:02:20;;;;;;;2.05;1.27;;;6.30;99.90;;;;;;4976313;28;20042;-86
2022/04/30 05:04:46;;;;;;;1.88;1.15;;;6.10;99.90;;;;;;4985537;28;20053;-87
2022/04/30 05:07:12;;;;;;;1.70;1.17;;;6.20;99.90;;;;;;4975993;28;20046;-86
2022/04/30 05:09:38;;;;;;;2.05;1.10;;;6.20;99.90;;;;;;4970141;28;20407;-86
2022/04/30 05:12:05;;;;;;;1.80;1.30;;;6.10;99.90;;;;;;4975105;28;20137;-86
2022/04/30 05:14:34;;;;;;;2.10;1.23;;;5.90;99.90;;;;;;4971235;28;20042;-86
2022/04/30 05:17:04;;;;;;;3.78;1.58;;;6.10;99.90;;;;;;4967151;28;20069;-86
2022/04/30 05:19:30;;;;;;;3.28;1.05;;;6.00;99.90;;;;;;4986551;28;20395;-86
2022/04/30 05:21:56;;;;;;;2.20;1.00;;;6.10;99.90;;;;;;4971229;28;20059;-86
2022/04/30 05:24:22;;;;;;;2.95;1.40;;;6.30;99.90;;;;;;4956652;28;20053;-86
2022/04/30 05:26:48;;;;;;;2.22;1.15;;;6.30;99.90;;;;;;4990456;28;20034;-86
2022/04/30 05:29:14;;;;;;;3.33;1.42;;;7.00;99.90;;;;;;4975580;28;20492;-86
2022/04/30 05:31:40;;;;;;;1.98;1.00;;;6.50;99.90;;;;;;4993896;28;20095;-87
2022/04/30 05:34:06;;;;;;;2.60;1.00;;;5.90;99.90;;;;;;4955168;28;20490;-87
2022/04/30 05:36:31;;;;;;;2.03;1.00;;;6.90;99.90;;;;;;4984969;28;20062;-86
2022/04/30 05:38:59;;;;;;;2.88;1.77;;;7.70;99.90;;;;;;4960381;28;20049;-85
2022/04/30 05:41:30;;;;;;;3.00;1.65;;;7.00;99.90;;;;;;4966917;28;20558;-86
2022/04/30 05:43:56;;;;;;;2.83;1.58;;;7.70;99.90;;;;;;4976390;28;20057;-86
2022/04/30 05:46:22;;;;;;;3.58;1.42;;;8.00;99.90;;;;;;4967933;28;20055;-86
2022/04/30 05:48:48;;;;;;;4.70;1.70;;;8.20;99.90;;;;;;4975814;28;20042;-86
2022/04/30 05:51:14;;;;;;;2.13;1.20;;;7.40;99.90;;;;;;4984355;28;20495;-86
2022/04/30 05:53:40;;;;;;;1.83;1.05;;;7.50;99.90;;;;;;4980099;28;20045;-87
2022/04/30 05:56:06;;;;;;;2.80;1.30;;;7.70;99.90;;;;;;4967429;28;20046;-88
2022/04/30 05:58:32;;;;;;;3.63;1.17;;;7.70;99.90;;;;;;4968324;28;20074;-89
2022/04/30 06:00:58;;;;;;;2.28;1.30;;;7.90;99.90;;;;;;4964623;28;20128;-87
2022/04/30 06:03:24;;;;;;;3.63;1.67;;;8.50;99.90;;;;;;4959497;28;20054;-91
2022/04/30 06:05:52;;;;;;;2.30;1.20;;;9.00;99.90;;;;;;4987120;28;20471;-87
2022/04/30 06:08:17;;;;;;;3.95;2.63;;;8.50;99.90;;;;;;4974452;28;20046;-85
2022/04/30 06:10:43;;;;;;;3.45;2.03;;;8.90;99.90;;;;;;4969212;28;20052;-86
2022/04/30 06:13:11;;;;;;;4.63;2.50;;;9.40;99.90;;;;;;4969540;28;20063;-86
2022/04/30 06:15:37;;;;;;;7.30;3.30;;;8.80;99.90;;;;;;4984682;28;20051;-86
2022/04/30 06:18:03;;;;;;;4.88;3.00;;;9.60;99.90;;;;;;4975769;28;20046;-86
2022/04/30 06:20:30;;;;;;;7.43;3.50;;;9.30;99.90;;;;;;4977456;28;20387;-86
2022/04/30 06:22:56;;;;;;;4.88;2.88;;;9.40;99.90;;;;;;4975336;28;20129;-86
2022/04/30 06:25:21;;;;;;;6.30;2.85;;;9.50;99.90;;;;;;4985708;28;20500;-85
2022/04/30 06:27:47;;;;;;;4.88;2.58;;;10.00;99.90;;;;;;4969034;28;20133;-86
2022/04/30 06:30:13;;;;;;;4.95;3.03;;;9.90;99.90;;;;;;4974884;28;20431;-86
2022/04/30 06:33:04;;;;;;;6.28;3.20;;;9.80;99.90;;;;;;4992287;28;20046;-89
2022/04/30 06:39:03;;;;;;;3.65;2.25;;;9.90;99.90;;;;;;5098620;23;20137;-89
2022/04/30 06:41:31;;;;;;;6.60;3.50;;;9.80;99.90;;;;;;4964289;28;20348;-85
2022/04/30 06:44:05;;;;;;;5.15;2.70;;;10.00;99.90;;;;;;4984406;28;20050;-92
2022/04/30 06:46:31;;;;;;;5.75;2.92;;;10.00;99.90;;;;;;4967861;28;20030;-85
2022/04/30 06:48:58;;;;;;;8.75;3.22;;;9.90;99.90;;;;;;4992457;28;20521;-87
2022/04/30 06:51:24;;;;;;;3.78;2.50;;;10.00;99.90;;;;;;4958489;28;20133;-87
2022/04/30 06:59:22;;;;;;;4.60;2.75;;;10.60;99.90;;;;;;4981731;28;20414;-87
2022/04/30 07:02:01;;;;;;;5.38;3.00;;;10.10;99.90;;;;;;4966112;28;20053;-85
2022/04/30 07:04:29;;;;;;;4.25;2.33;;;10.00;99.90;;;;;;4992050;28;20477;-85
2022/04/30 07:06:55;;;;;;;11.18;3.22;;;10.10;99.90;;;;;;4967103;28;20046;-86
2022/04/30 07:09:21;;;;;;;3.30;2.50;;;10.20;99.90;;;;;;4992338;28;20070;-86
2022/04/30 07:11:47;;;;;;;4.75;2.08;;;9.40;99.90;;;;;;4966235;28;20046;-87
2022/04/30 07:14:13;;;;;;;4.32;2.20;;;10.30;99.90;;;;;;4974020;28;20137;-86
2022/04/30 07:16:39;;;;;;;3.38;1.95;;;10.30;99.90;;;;;;4984726;28;20035;-86
2022/04/30 07:19:05;;;;;;;4.10;1.77;;;10.50;99.90;;;;;;4952148;28;20129;-86
2022/04/30 07:21:31;;;;;;;6.72;2.70;;;10.30;99.90;;;;;;4974800;28;20061;-86
2022/04/30 07:24:01;;;;;;;4.22;1.60;;;10.40;99.90;;;;;;4973159;28;20051;-86
2022/04/30 07:26:27;;;;;;;6.38;2.35;;;10.50;99.90;;;;;;4967165;28;20053;-86
2022/04/30 07:28:53;;;;;;;4.45;2.20;;;10.50;99.90;;;;;;4983835;28;20042;-86
2022/04/30 07:31:19;;;;;;;3.58;2.10;;;10.50;99.90;;;;;;4974604;28;20038;-87
2022/04/30 07:33:45;;;;;;;5.65;2.45;;;10.50;99.90;;;;;;4974428;28;20054;-86
2022/04/30 07:36:11;;;;;;;5.82;2.63;;;11.20;99.90;;;;;;4967440;28;20049;-87
2022/04/30 07:38:37;;;;;;;2.70;2.10;;;10.70;99.90;;;;;;4974319;28;20056;-86
2022/04/30 07:41:10;;;;;;;5.88;2.70;;;10.50;99.90;;;;;;4997105;28;20122;-85
2022/04/30 07:43:35;;;;;;;4.50;2.72;;;10.60;99.90;;;;;;4979369;28;20041;-84
2022/04/30 07:46:01;;;;;;;4.88;2.63;;;10.70;99.90;;;;;;4990302;28;20419;-87
2022/04/30 07:48:27;;;;;;;4.43;2.08;;;11.40;99.90;;;;;;4962505;28;20133;-87
2022/04/30 07:50:57;;;;;;;5.40;1.60;;;10.80;99.90;;;;;;4950776;28;20055;-87
2022/04/30 07:53:25;;;;;;;6.93;2.45;;;10.90;99.90;;;;;;4959209;28;20049;-87
2022/04/30 07:55:50;;;;;;;6.40;1.75;;;11.10;99.90;;;;;;4944350;28;20540;-87
2022/04/30 07:58:16;;;;;;;4.78;2.42;;;11.10;99.90;;;;;;4969933;28;20046;-83
2022/04/30 08:00:42;;;;;;;5.18;1.80;;;11.20;99.90;;;;;;4967508;28;20066;-85
2022/04/30 08:05:43;;;;;;;3.67;1.80;;;11.10;99.90;;;;;;5161830;23;20065;-92
2022/04/30 08:08:12;;;;;;;2.58;1.80;;;11.10;99.90;;;;;;4988023;28;20046;-89
2022/04/30 08:10:48;;;;;;;2.83;1.77;;;11.10;99.90;;;;;;5007870;28;20401;-91
2022/04/30 08:19:51;;;;;;;5.70;2.28;;;11.20;99.90;;;;;;5002854;23;20065;-90
2022/04/30 08:22:17;;;;;;;6.90;2.25;;;11.30;99.90;;;;;;5004469;23;20108;-91
2022/04/30 08:25:17;;;;;;;3.60;2.60;;;11.30;99.90;;;;;;5001723;28;20117;-90
2022/04/30 08:28:13;;;;;;;4.60;2.47;;;11.20;99.90;;;;;;4880762;29;20061;-88
2022/04/30 08:31:00;;;;;;;7.45;3.00;;;11.20;99.90;;;;;;4862010;29;20056;-88
2022/04/30 08:33:29;;;;;;;4.43;2.28;;;11.00;99.90;;;;;;4870383;29;20490;-86
2022/04/30 08:36:18;;;;;;;4.88;2.55;;;11.20;99.90;;;;;;4868079;29;20085;-89
2022/04/30 08:38:55;;;;;;;6.93;3.22;;;11.10;99.90;;;;;;4856311;29;20049;-88
2022/04/30 08:41:53;;;;;;;6.75;3.40;;;11.10;99.90;;;;;;4919561;23;20043;-92
2022/04/30 08:52:22;;;;;;;3.92;2.13;;;10.80;99.90;;;;;;4960717;28;20070;-85
2022/04/30 08:56:13;;;;;;;;;;;;;;;;;;;;;
2022/04/30 09:08:06;;;;;;;2.65;1.60;;;10.90;99.90;;;;;;1267399;23;20366;-87
2022/04/30 09:15:17;;;;;;;4.65;1.80;;;10.80;99.90;;;;;;4935372;29;20511;-89
2022/04/30 09:17:57;;;;;;;4.47;1.80;;;10.80;99.90;;;;;;4926619;23;20059;-90
2022/04/30 09:20:23;;;;;;;4.93;2.00;;;10.90;99.90;;;;;;4957707;29;20507;-85
2022/04/30 09:28:03;;;;;;;2.53;1.58;;;11.30;99.90;;;;;;2580333;23;20096;-88
2022/04/30 09:37:53;;;;;;;;;;;;;;;;;;;;;
2022/04/30 09:43:27;;;;;;;4.97;1.98;;;11.60;99.90;;;;;;5606630;23;20065;-85
2022/04/30 09:46:19;;;;;;;3.50;1.55;;;12.20;99.90;;;;;;5007208;23;20042;-88
2022/04/30 10:41:10;;;;;;;7.35;2.00;;;11.10;99.90;;;;;;5004814;23;20055;-89
2022/04/30 10:48:22;;;;;;;4.32;2.53;;;11.00;99.90;;;;;;4806489;29;20054;-88
2022/04/30 10:51:25;;;;;;;5.47;2.50;;;11.10;99.90;;;;;;4770203;30;20067;-87
2022/04/30 10:53:54;;;;;;;3.97;2.00;;;11.10;99.90;;;;;;4771441;30;20051;-86
2022/04/30 10:56:50;;;;;;;2.58;1.85;;;11.10;99.90;;;;;;4785694;29;20881;-87
2022/04/30 10:59:31;;;;;;;4.93;2.30;;;11.10;99.90;;;;;;4766844;30;20055;-87
2022/04/30 11:02:06;;;;;;;2.85;1.70;;;11.20;99.90;;;;;;4782429;29;20059;-89
2022/04/30 11:04:31;;;;;;;1.77;1.40;;;11.50;99.90;;;;;;4770133;30;20043;-88
2022/04/30 11:07:04;;;;;;;2.13;1.45;;;11.40;99.90;;;;;;4814865;24;20438;-91
2022/04/30 11:09:43;;;;;;;5.07;1.90;;;11.80;99.90;;;;;;4806856;29;20688;-87
2022/04/30 11:12:16;;;;;;;3.50;1.52;;;11.40;99.90;;;;;;4787703;29;20130;-87
2022/04/30 11:14:48;;;;;;;3.78;1.65;;;11.60;99.90;;;;;;4789281;29;20047;-86
2022/04/30 11:17:21;;;;;;;4.68;1.83;;;11.50;99.90;;;;;;4805483;29;20142;-87
2022/04/30 11:20:04;;;;;;;3.88;1.77;;;11.60;99.90;;;;;;4804453;29;20050;-87
2022/04/30 11:22:30;;;;;;;3.05;1.60;;;11.60;99.90;;;;;;4782666;29;20129;-87
2022/04/30 11:24:57;;;;;;;4.88;1.85;;;11.70;99.90;;;;;;4788797;29;20158;-87
2022/04/30 11:27:38;;;;;;;4.63;1.60;;;11.60;99.90;;;;;;4800059;29;20496;-88
2022/04/30 11:30:04;;;;;;;2.28;1.27;;;11.80;99.90;;;;;;4806962;29;20053;-87
2022/04/30 11:32:31;;;;;;;4.57;1.50;;;11.90;99.90;;;;;;4807245;29;20050;-87
2022/04/30 11:35:01;;;;;;;3.35;1.40;;;12.00;99.90;;;;;;4806478;29;20050;-87
2022/04/30 11:38:06;;;;;;;3.20;1.95;;;12.10;99.90;;;;;;4807317;29;20121;-90
2022/04/30 11:40:42;;;;;;;4.57;2.03;;;12.20;99.90;;;;;;4788616;24;20042;-88
2022/04/30 11:43:26;;;;;;;4.53;2.03;;;12.20;99.90;;;;;;4805726;29;20069;-89
2022/04/30 11:46:20;;;;;;;3.90;1.77;;;12.20;99.90;;;;;;4874119;23;20047;-89
2022/04/30 11:48:46;;;;;;;3.70;1.58;;;12.30;99.90;;;;;;4822134;29;20078;-87
2022/04/30 11:51:20;;;;;;;3.47;1.63;;;12.40;99.90;;;;;;4791538;29;20145;-88
2022/04/30 11:53:51;;;;;;;3.17;1.75;;;12.50;99.90;;;;;;4807112;29;20050;-88
2022/04/30 11:56:42;;;;;;;6.07;2.00;;;12.50;99.90;;;;;;4806905;29;20199;-88
2022/04/30 12:03:30;;;;;;;8.85;2.42;;;12.70;99.90;;;;;;4817996;29;20085;-85
2022/04/30 12:06:40;;;;;;;;;;;;;;;;;;;;;
2022/04/30 12:09:30;;;;;;;4.15;2.15;;;12.90;99.90;;;;;;4811964;23;20036;-88
2022/04/30 12:11:56;;;;;;;6.30;2.67;;;12.80;99.90;;;;;;4810033;29;20054;-85
2022/04/30 12:14:22;;;;;;;4.13;2.35;;;13.00;99.90;;;;;;4807599;29;20053;-88
2022/04/30 12:17:00;;;;;;;4.07;2.10;;;12.90;99.90;;;;;;4822863;29;20122;-87
2022/04/30 12:26:13;;;;;;;5.07;2.20;;;13.00;99.90;;;;;;4806701;29;20410;-88
2022/04/30 15:23:26;;;;;;;3.88;1.30;;;11.40;99.90;;;;;;5135790;24;20324;-89
2022/04/30 15:27:44;;;;;;;;;;;;;;;;;;;;;
2022/04/30 15:35:22;;;;;;;;;;;;;;;;;;;;;
2022/04/30 15:41:21;;;;;;;3.28;1.27;;;11.60;99.90;;;;;;4747333;24;20122;-86
2022/04/30 15:53:05;;;;;;;1.63;0.90;;;11.70;99.90;;;;;;4755057;30;20107;-86
2022/04/30 15:55:30;;;;;;;1.85;1.13;;;11.90;99.90;;;;;;4761443;30;20113;-86
2022/04/30 15:57:56;;;;;;;4.00;1.40;;;11.80;99.90;;;;;;4754033;30;20052;-85
2022/04/30 16:07:48;;;;;;;2.55;1.05;;;11.90;99.90;;;;;;4765918;30;20047;-87
2022/04/30 16:10:15;;;;;;;1.88;1.17;;;11.90;99.90;;;;;;4771282;30;20086;-86
2022/04/30 16:12:41;;;;;;;2.75;1.35;;;11.90;99.90;;;;;;4755484;30;20052;-85
2022/04/30 16:15:08;;;;;;;2.13;1.20;;;11.90;99.90;;;;;;4772320;30;20067;-85
2022/04/30 16:17:35;;;;;;;2.70;1.20;;;11.80;99.90;;;;;;4751989;30;20074;-86
2022/04/30 16:20:03;;;;;;;5.82;1.80;;;11.90;99.90;;;;;;4771762;30;20395;-86
2022/04/30 16:22:29;;;;;;;3.15;1.70;;;11.90;99.90;;;;;;4771321;30;20584;-85
2022/04/30 16:24:55;;;;;;;2.65;1.30;;;11.90;99.90;;;;;;4756320;30;20052;-84
2022/04/30 16:27:41;;;;;;;2.08;1.27;;;11.80;99.90;;;;;;4741536;30;20386;-87
2022/04/30 16:30:10;;;;;;;2.60;1.55;;;11.80;99.90;;;;;;4756506;30;20063;-85
2022/04/30 16:32:40;;;;;;;2.38;1.70;;;11.80;99.90;;;;;;4755914;30;20504;-86
2022/04/30 16:35:09;;;;;;;2.83;1.83;;;11.70;99.90;;;;;;4771991;30;20100;-86
2022/04/30 16:37:34;;;;;;;3.30;1.67;;;11.70;99.90;;;;;;4771332;30;20077;-84
2022/04/30 16:40:00;;;;;;;2.38;1.50;;;12.30;99.90;;;;;;4755849;30;20060;-85
2022/04/30 16:42:27;;;;;;;3.78;1.70;;;11.70;99.90;;;;;;4755870;30;20051;-86
2022/04/30 16:44:57;;;;;;;4.85;2.13;;;12.00;99.90;;;;;;4755979;30;20043;-86
2022/04/30 16:47:24;;;;;;;4.32;2.05;;;11.90;99.90;;;;;;4751219;30;20056;-85
2022/04/30 16:49:50;;;;;;;2.47;1.23;;;11.50;99.90;;;;;;4755792;30;20067;-85
2022/04/30 16:52:25;;;;;;;2.45;1.50;;;11.50;99.90;;;;;;4756001;30;20048;-85
2022/04/30 16:57:41;;;;;;;5.07;2.05;;;11.70;99.90;;;;;;4771779;30;20098;-87
2022/04/30 17:00:11;;;;;;;2.63;1.75;;;11.50;99.90;;;;;;4756142;30;20576;-88
2022/04/30 17:02:38;;;;;;;2.72;1.50;;;11.50;99.90;;;;;;4771028;30;20508;-89
2022/04/30 17:05:08;;;;;;;6.22;2.38;;;11.60;99.90;;;;;;4771318;30;20060;-86
2022/04/30 17:07:46;;;;;;;2.97;2.03;;;11.30;99.90;;;;;;4756211;30;20058;-89
2022/04/30 17:10:15;;;;;;;2.53;1.45;;;11.40;99.90;;;;;;4756303;30;20058;-90
2022/04/30 17:12:41;;;;;;;4.45;1.60;;;11.30;99.90;;;;;;4756094;30;20149;-90
2022/04/30 17:15:10;;;;;;;2.80;1.55;;;11.30;99.90;;;;;;4755481;30;20142;-89
2022/04/30 17:17:41;;;;;;;1.77;1.30;;;11.30;99.90;;;;;;4745442;30;20146;-88
2022/04/30 17:20:16;;;;;;;2.50;1.20;;;11.10;99.90;;;;;;4755301;30;20063;-86
2022/04/30 17:23:35;;;;;;;3.60;1.48;;;11.20;99.90;;;;;;4770839;24;20066;-89
2022/04/30 17:26:33;;;;;;;4.20;2.00;;;11.10;99.90;;;;;;4734572;24;20058;-91
2022/04/30 17:28:59;;;;;;;2.40;1.60;;;11.20;99.90;;;;;;4746157;30;20052;-85
2022/04/30 17:39:38;;;;;;;2.08;1.40;;;10.70;99.90;;;;;;4753870;30;20047;-85
2022/04/30 17:42:06;;;;;;;4.53;2.10;;;10.90;99.90;;;;;;4754134;30;20112;-86
2022/04/30 17:48:47;;;;;;;1.92;1.38;;;10.90;99.90;;;;;;4760190;30;20477;-85
2022/04/30 17:51:14;;;;;;;4.32;1.45;;;10.80;99.90;;;;;;4743300;30;20504;-84
2022/04/30 17:53:40;;;;;;;4.70;1.35;;;11.00;99.90;;;;;;4753553;30;20134;-85
2022/04/30 17:58:37;;;;;;;3.63;1.77;;;10.50;99.90;;;;;;4774530;24;20078;-86
2022/04/30 18:01:03;;;;;;;4.25;1.95;;;10.50;99.90;;;;;;4743878;30;20103;-85
2022/04/30 18:03:29;;;;;;;4.05;1.42;;;10.50;99.90;;;;;;4722436;30;20048;-86
2022/04/30 18:05:55;;;;;;;4.93;1.70;;;10.40;99.90;;;;;;4737209;30;20094;-86
2022/04/30 18:08:21;;;;;;;2.30;1.27;;;10.40;99.90;;;;;;4756572;30;20055;-85
2022/04/30 18:10:53;;;;;;;2.38;1.50;;;10.30;99.90;;;;;;4740889;30;20437;-90
2022/04/30 18:13:19;;;;;;;2.85;1.60;;;10.70;99.90;;;;;;4731958;30;20052;-86
2022/04/30 18:15:45;;;;;;;4.85;1.73;;;10.20;99.90;;;;;;4763659;30;20411;-87
2022/04/30 18:18:11;;;;;;;2.70;1.88;;;10.10;99.90;;;;;;4739051;30;20094;-87
2022/04/30 18:20:37;;;;;;;4.15;2.50;;;10.10;99.90;;;;;;4736592;30;20532;-86
2022/04/30 18:23:07;;;;;;;2.80;1.40;;;10.10;99.90;;;;;;4736967;30;20506;-88
2022/04/30 18:25:39;;;;;;;2.88;1.95;;;9.90;99.90;;;;;;4736893;30;20466;-86
2022/04/30 18:28:10;;;;;;;3.70;1.98;;;9.90;99.90;;;;;;4752249;30;20055;-90
2022/04/30 18:30:46;;;;;;;4.00;2.55;;;9.90;99.90;;;;;;4736626;30;20048;-86
2022/04/30 18:33:11;;;;;;;3.88;2.20;;;9.90;99.90;;;;;;4743978;30;20059;-86
2022/04/30 18:35:38;;;;;;;3.25;2.20;;;9.80;99.90;;;;;;4745426;30;20166;-93
2022/04/30 18:38:04;;;;;;;2.75;1.70;;;10.20;99.90;;;;;;4746394;30;20570;-84
2022/04/30 18:40:29;;;;;;;3.85;1.50;;;9.70;99.90;;;;;;4753880;30;20135;-86
2022/04/30 18:42:56;;;;;;;4.50;1.83;;;10.20;99.90;;;;;;4736861;30;20058;-87
2022/04/30 18:45:22;;;;;;;3.17;1.95;;;9.80;99.90;;;;;;4751951;30;20055;-85
2022/04/30 18:47:48;;;;;;;4.10;1.98;;;9.20;99.90;;;;;;4742933;30;20055;-86
2022/04/30 18:50:14;;;;;;;2.80;1.80;;;9.50;99.90;;;;;;4764178;30;20051;-86
2022/04/30 18:52:40;;;;;;;3.50;1.70;;;10.10;99.90;;;;;;4744344;30;20047;-87
2022/04/30 19:03:19;;;;;;;5.00;2.15;;;9.20;99.90;;;;;;4749535;30;20138;-87
2022/04/30 19:05:45;;;;;;;3.30;1.98;;;9.10;99.90;;;;;;4739047;30;20048;-85
2022/04/30 19:08:11;;;;;;;2.35;1.75;;;9.00;99.90;;;;;;4735980;30;20117;-86
2022/04/30 19:10:37;;;;;;;3.35;1.77;;;8.90;99.90;;;;;;4736051;30;20406;-86
2022/04/30 19:13:07;;;;;;;2.80;1.92;;;8.80;99.90;;;;;;4736492;30;20050;-86
2022/04/30 19:15:34;;;;;;;3.45;2.03;;;8.70;99.90;;;;;;4741706;30;20131;-85
2022/04/30 19:18:00;;;;;;;4.13;1.95;;;8.90;99.90;;;;;;4759107;30;20413;-86
2022/04/30 19:20:31;;;;;;;3.30;1.85;;;8.60;99.90;;;;;;4743548;24;20066;-87
2022/04/30 19:23:05;;;;;;;2.88;1.83;;;8.60;99.90;;;;;;4765592;30;20059;-86